Time;durP1;ratioP1;P1;durP2;ratioP2;P2;SDS_P1;SDS_P2;PMS_P1;PMS_P2;Temp;Humidity;BMP_temperature;BMP_pressure;BME280_temperature;BME280_humidity;BME280_pressure;Samples;Min_cycle;Max_cycle;Signal;HPM_P1;HPM_P2
2024/03/11 00:01:04;;;;;;;2.23;2.13;;;8.70;99.90;;;;;;5050529;28;20471;-87
2024/03/11 00:03:37;;;;;;;2.47;2.33;;;8.70;99.90;;;;;;5050025;28;20505;-84
2024/03/11 00:06:07;;;;;;;2.33;2.22;;;8.70;99.90;;;;;;5050875;28;20453;-86
2024/03/11 00:08:36;;;;;;;2.90;2.70;;;8.80;99.90;;;;;;5048927;28;20260;-84
2024/03/11 00:11:05;;;;;;;2.60;2.50;;;8.80;99.90;;;;;;5051926;28;20526;-85
2024/03/11 00:13:34;;;;;;;2.20;2.10;;;8.80;99.90;;;;;;5052078;28;20564;-84
2024/03/11 00:16:03;;;;;;;2.57;2.47;;;8.50;99.90;;;;;;5049521;28;20810;-83
2024/03/11 00:18:31;;;;;;;2.57;2.47;;;8.60;99.90;;;;;;5042847;28;20467;-83
2024/03/11 00:21:01;;;;;;;2.20;2.10;;;8.70;99.90;;;;;;5042661;28;20460;-85
2024/03/11 00:23:30;;;;;;;2.20;2.10;;;8.70;99.90;;;;;;5044015;28;20965;-83
2024/03/11 00:25:59;;;;;;;2.10;2.00;;;8.80;99.90;;;;;;5045346;28;20975;-83
2024/03/11 00:28:29;;;;;;;2.27;2.13;;;8.80;99.90;;;;;;5044910;28;20481;-85
2024/03/11 00:31:00;;;;;;;2.67;2.43;;;8.60;99.90;;;;;;5052093;28;20513;-86
2024/03/11 00:33:29;;;;;;;2.20;2.10;;;8.70;99.90;;;;;;5045918;28;20485;-81
2024/03/11 00:35:59;;;;;;;2.27;2.17;;;8.70;99.90;;;;;;5051880;28;20460;-87
2024/03/11 00:38:30;;;;;;;2.73;2.53;;;8.60;99.90;;;;;;5045561;28;20524;-86
2024/03/11 00:40:58;;;;;;;2.07;1.97;;;8.70;99.90;;;;;;5050092;28;20455;-84
2024/03/11 00:43:27;;;;;;;2.27;2.17;;;8.70;99.90;;;;;;5048460;28;20852;-86
2024/03/11 00:45:59;;;;;;;3.50;2.37;;;8.60;99.90;;;;;;5049106;28;20522;-84
2024/03/11 00:48:28;;;;;;;2.30;2.20;;;8.70;99.90;;;;;;5044622;28;20463;-85
2024/03/11 00:50:57;;;;;;;2.00;1.90;;;8.60;99.90;;;;;;5048392;28;20820;-84
2024/03/11 00:53:26;;;;;;;2.07;1.97;;;8.60;99.90;;;;;;5046874;28;20483;-83
2024/03/11 00:55:57;;;;;;;1.90;1.80;;;8.70;99.90;;;;;;5048748;28;20452;-86
2024/03/11 00:58:25;;;;;;;1.70;1.60;;;8.60;99.90;;;;;;5045717;28;20791;-87
2024/03/11 01:00:55;;;;;;;1.77;1.67;;;8.60;99.90;;;;;;5050877;28;20454;-84
2024/03/11 01:03:24;;;;;;;2.10;2.00;;;8.60;99.90;;;;;;5043735;28;20472;-85
2024/03/11 01:05:53;;;;;;;2.20;2.10;;;8.50;99.90;;;;;;5048721;28;20472;-85
2024/03/11 01:08:22;;;;;;;2.23;2.13;;;8.70;99.90;;;;;;5041584;28;20511;-89
2024/03/11 01:10:51;;;;;;;2.10;2.00;;;8.70;59.00;;;;;;5063197;28;20521;-88
2024/03/11 01:13:21;;;;;;;1.93;1.83;;;8.60;79.70;;;;;;5039187;28;20525;-85
2024/03/11 01:15:50;;;;;;;2.03;1.90;;;8.70;29.50;;;;;;5038678;28;20643;-84
2024/03/11 01:18:19;;;;;;;2.10;2.00;;;8.70;53.10;;;;;;5046191;28;20451;-86
2024/03/11 01:20:49;;;;;;;1.90;1.80;;;8.60;4.40;;;;;;5047058;28;20455;-85
2024/03/11 01:23:18;;;;;;;2.10;2.00;;;8.60;53.00;;;;;;5053223;28;20949;-84
2024/03/11 01:25:46;;;;;;;2.10;2.00;;;8.40;30.40;;;;;;5050714;28;20537;-85
2024/03/11 01:28:15;;;;;;;2.10;2.00;;;8.30;99.90;;;;;;5048343;28;20456;-84
2024/03/11 01:30:44;;;;;;;1.80;1.70;;;8.30;99.90;;;;;;5042040;28;20460;-86
2024/03/11 01:33:13;;;;;;;2.00;1.90;;;8.30;99.90;;;;;;5052861;28;20482;-87
2024/03/11 01:35:41;;;;;;;1.80;1.70;;;8.40;99.90;;;;;;5051682;28;20470;-86
2024/03/11 01:38:10;;;;;;;1.80;1.70;;;8.50;24.00;;;;;;5045517;28;20451;-86
2024/03/11 01:40:38;;;;;;;1.70;1.60;;;8.40;38.90;;;;;;5049336;28;20436;-86
2024/03/11 01:43:07;;;;;;;2.00;1.90;;;8.50;16.20;;;;;;5044360;28;20451;-85
2024/03/11 01:45:37;;;;;;;1.80;1.70;;;8.50;13.30;;;;;;5044359;28;20436;-86
2024/03/11 01:48:09;;;;;;;2.20;2.10;;;8.30;2.60;;;;;;5049070;28;20459;-85
2024/03/11 01:50:38;;;;;;;1.87;1.77;;;8.20;99.90;;;;;;5047112;28;20466;-86
2024/03/11 01:53:06;;;;;;;2.40;2.30;;;8.30;97.10;;;;;;5043787;28;20475;-85
2024/03/11 01:55:37;;;;;;;1.80;1.70;;;8.40;99.90;;;;;;5048125;28;20869;-85
2024/03/11 01:58:09;;;;;;;1.93;1.83;;;8.40;47.80;;;;;;5044059;28;20463;-84
2024/03/11 02:00:38;;;;;;;1.93;1.83;;;8.40;4.00;;;;;;5047644;28;20459;-85
2024/03/11 02:03:08;;;;;;;2.17;2.07;;;8.30;21.80;;;;;;5043567;28;20949;-85
2024/03/11 02:05:40;;;;;;;2.07;1.97;;;8.30;99.90;;;;;;5047309;28;21713;-86
2024/03/11 02:08:09;;;;;;;2.17;2.07;;;8.20;1.00;;;;;;5046098;28;20443;-84
2024/03/11 02:10:38;;;;;;;1.70;1.60;;;8.20;99.90;;;;;;5043009;28;20493;-86
2024/03/11 02:13:07;;;;;;;2.03;1.93;;;8.30;4.70;;;;;;5047205;28;20459;-85
2024/03/11 02:15:35;;;;;;;2.20;2.10;;;8.40;1.00;;;;;;5043610;28;20447;-86
2024/03/11 02:18:05;;;;;;;2.00;1.90;;;8.40;1.00;;;;;;5042094;28;20454;-86
2024/03/11 02:20:38;;;;;;;2.00;1.80;;;8.40;1.00;;;;;;5044723;28;20505;-86
2024/03/11 02:23:08;;;;;;;1.73;1.63;;;8.30;1.00;;;;;;5040425;28;20463;-85
2024/03/11 02:25:37;;;;;;;1.73;1.63;;;8.20;7.80;;;;;;5045815;28;20463;-85
2024/03/11 02:28:06;;;;;;;1.60;1.60;;;8.20;1.00;;;;;;5040845;28;20960;-90
2024/03/11 02:30:35;;;;;;;2.00;1.90;;;8.10;1.00;;;;;;5041077;28;20950;-84
2024/03/11 02:33:05;;;;;;;1.80;1.70;;;8.10;1.00;;;;;;5044282;28;20462;-86
2024/03/11 02:35:33;;;;;;;1.77;1.67;;;8.30;18.60;;;;;;5041913;28;20444;-90
2024/03/11 02:38:02;;;;;;;1.77;1.60;;;8.30;1.00;;;;;;5042067;28;20551;-89
2024/03/11 02:40:37;;;;;;;1.70;1.60;;;8.20;1.00;;;;;;5039965;28;20456;-85
2024/03/11 02:43:06;;;;;;;1.70;1.60;;;8.20;1.00;;;;;;5045873;28;20455;-86
2024/03/11 02:45:35;;;;;;;1.60;1.50;;;8.10;1.00;;;;;;5039400;28;20450;-86
2024/03/11 02:48:04;;;;;;;1.70;1.60;;;8.20;4.30;;;;;;5045737;28;20869;-83
2024/03/11 02:50:32;;;;;;;1.47;1.47;;;8.30;1.00;;;;;;5042524;28;20611;-87
2024/03/11 02:53:00;;;;;;;1.57;1.47;;;8.30;1.00;;;;;;5041053;28;20926;-84
2024/03/11 02:55:30;;;;;;;1.67;1.60;;;8.30;1.00;;;;;;5041746;28;20511;-85
2024/03/11 02:58:00;;;;;;;1.50;1.40;;;8.10;1.00;;;;;;5044813;28;20459;-84
2024/03/11 03:00:28;;;;;;;1.40;1.40;;;8.20;1.00;;;;;;5044851;28;20455;-85
2024/03/11 03:02:56;;;;;;;1.40;1.40;;;8.10;1.00;;;;;;5045452;28;20451;-85
2024/03/11 03:05:23;;;;;;;1.50;1.50;;;8.10;1.00;;;;;;5040993;28;20475;-86
2024/03/11 03:07:52;;;;;;;1.50;1.40;;;8.00;1.00;;;;;;5048220;28;20444;-84
2024/03/11 03:10:20;;;;;;;1.70;1.60;;;8.20;1.00;;;;;;5040446;28;20999;-85
2024/03/11 03:12:50;;;;;;;1.70;1.60;;;8.20;1.00;;;;;;5045205;28;20452;-85
2024/03/11 03:15:18;;;;;;;1.60;1.50;;;8.20;1.00;;;;;;5042720;28;20995;-85
2024/03/11 03:17:46;;;;;;;1.47;1.47;;;8.30;1.00;;;;;;5045738;28;20457;-84
2024/03/11 03:20:15;;;;;;;1.60;1.50;;;8.20;1.00;;;;;;5043934;28;21020;-86
2024/03/11 03:22:43;;;;;;;1.40;1.40;;;8.10;1.00;;;;;;5044670;28;20518;-87
2024/03/11 03:25:13;;;;;;;1.83;1.73;;;8.10;1.00;;;;;;5044199;28;20482;-86
2024/03/11 03:27:41;;;;;;;1.63;1.53;;;7.90;1.00;;;;;;5045261;28;20478;-87
2024/03/11 03:30:15;;;;;;;1.53;1.43;;;8.00;1.00;;;;;;5044958;28;21000;-86
2024/03/11 03:32:44;;;;;;;1.60;1.60;;;8.00;1.00;;;;;;5043317;28;20455;-86
2024/03/11 03:35:12;;;;;;;1.73;1.63;;;8.00;1.00;;;;;;5042463;28;20486;-86
2024/03/11 03:37:41;;;;;;;1.47;1.47;;;8.00;1.00;;;;;;5041117;28;20441;-85
2024/03/11 03:40:15;;;;;;;1.73;1.63;;;7.90;1.00;;;;;;5041881;28;20459;-86
2024/03/11 03:42:46;;;;;;;1.60;1.50;;;7.90;1.00;;;;;;5040506;28;20474;-86
2024/03/11 03:45:18;;;;;;;1.80;1.70;;;7.90;1.00;;;;;;5045939;28;20448;-86
2024/03/11 03:47:46;;;;;;;1.50;1.50;;;7.90;1.00;;;;;;5041740;28;20814;-85
2024/03/11 03:50:15;;;;;;;1.47;1.47;;;7.80;1.00;;;;;;5044153;28;21054;-84
2024/03/11 03:52:43;;;;;;;1.53;1.43;;;7.60;1.00;;;;;;5048730;28;20454;-85
2024/03/11 03:55:14;;;;;;;1.37;1.37;;;7.50;1.00;;;;;;5049954;28;20537;-85
2024/03/11 03:57:44;;;;;;;1.70;1.60;;;7.50;1.00;;;;;;5062901;28;21219;-86
2024/03/11 04:00:16;;;;;;;1.83;1.50;;;7.70;1.00;;;;;;5046076;28;20480;-86
2024/03/11 04:02:48;;;;;;;1.30;1.30;;;7.70;1.00;;;;;;5045150;28;20459;-85
2024/03/11 04:05:18;;;;;;;1.30;1.30;;;7.90;1.00;;;;;;5043032;28;20501;-85
2024/03/11 04:07:47;;;;;;;1.90;1.40;;;8.00;1.00;;;;;;5044653;28;20452;-85
2024/03/11 04:10:17;;;;;;;1.50;1.40;;;7.80;1.00;;;;;;5041041;28;20464;-84
2024/03/11 04:12:48;;;;;;;1.60;1.50;;;7.80;1.00;;;;;;5045074;28;20852;-86
2024/03/11 04:15:19;;;;;;;1.80;1.70;;;7.80;1.00;;;;;;5048179;28;20485;-86
2024/03/11 04:17:50;;;;;;;1.60;1.50;;;7.80;1.00;;;;;;5047493;28;20983;-86
2024/03/11 04:20:22;;;;;;;1.60;1.50;;;7.70;1.00;;;;;;5048909;28;20474;-87
2024/03/11 04:22:53;;;;;;;1.53;1.47;;;7.60;1.00;;;;;;5045336;28;20460;-86
2024/03/11 04:25:25;;;;;;;1.90;1.80;;;7.50;1.00;;;;;;5046992;28;20464;-87
2024/03/11 04:27:54;;;;;;;1.60;1.50;;;7.50;1.00;;;;;;5042466;28;20493;-85
2024/03/11 04:30:32;;;;;;;1.67;1.57;;;7.60;1.00;;;;;;5050445;28;21030;-88
2024/03/11 04:33:02;;;;;;;1.40;1.40;;;7.50;1.00;;;;;;5046325;28;20447;-88
2024/03/11 04:35:32;;;;;;;1.50;1.50;;;7.40;1.00;;;;;;5049411;28;20488;-83
2024/03/11 04:38:03;;;;;;;1.60;1.53;;;7.30;1.00;;;;;;5049170;28;20457;-85
2024/03/11 04:40:34;;;;;;;3.10;1.90;;;7.30;1.00;;;;;;5043944;28;20825;-86
2024/03/11 04:43:03;;;;;;;1.50;1.50;;;7.30;1.00;;;;;;5041841;28;20459;-85
2024/03/11 04:45:32;;;;;;;1.80;1.70;;;7.40;1.00;;;;;;5046259;28;20961;-85
2024/03/11 04:48:02;;;;;;;1.87;1.80;;;7.20;1.00;;;;;;5040992;28;20461;-85
2024/03/11 04:50:32;;;;;;;1.90;1.80;;;7.20;1.00;;;;;;5051252;28;20463;-86
2024/03/11 04:53:04;;;;;;;2.40;2.20;;;7.20;1.00;;;;;;5049326;28;20462;-83
2024/03/11 04:55:47;;;;;;;1.70;1.60;;;7.20;1.00;;;;;;5120570;27;20577;-83
2024/03/11 04:58:15;;;;;;;1.70;1.60;;;7.20;1.00;;;;;;5095516;28;20445;-81
2024/03/11 05:00:44;;;;;;;1.80;1.70;;;7.20;1.00;;;;;;5093278;28;20464;-90
2024/03/11 05:03:13;;;;;;;2.00;1.90;;;7.20;1.00;;;;;;5090270;28;20543;-84
2024/03/11 05:05:42;;;;;;;1.90;1.80;;;7.20;1.00;;;;;;5089018;28;20445;-84
2024/03/11 05:08:13;;;;;;;2.10;2.00;;;7.10;1.00;;;;;;5083980;28;20445;-84
2024/03/11 05:10:42;;;;;;;1.83;1.73;;;7.10;1.00;;;;;;5086903;28;20536;-84
2024/03/11 05:13:11;;;;;;;1.93;1.83;;;7.20;1.00;;;;;;5098007;28;20456;-84
2024/03/11 05:15:40;;;;;;;1.90;1.80;;;7.10;1.00;;;;;;5099686;28;20488;-81
2024/03/11 05:18:09;;;;;;;2.20;2.00;;;7.00;1.00;;;;;;5106435;28;20459;-82
2024/03/11 05:20:37;;;;;;;2.23;2.13;;;7.00;1.00;;;;;;5092762;28;20974;-83
2024/03/11 05:23:06;;;;;;;1.93;1.90;;;7.10;1.00;;;;;;5092116;28;20457;-83
2024/03/11 05:25:35;;;;;;;2.63;2.53;;;7.10;1.00;;;;;;5086703;28;20456;-84
2024/03/11 05:28:03;;;;;;;2.10;2.00;;;7.10;1.00;;;;;;5087516;28;21250;-84
2024/03/11 05:30:33;;;;;;;2.27;2.17;;;7.00;1.00;;;;;;5085414;28;20194;-84
2024/03/11 05:33:02;;;;;;;1.90;1.80;;;7.10;1.00;;;;;;5094287;28;20491;-81
2024/03/11 05:35:30;;;;;;;1.90;1.80;;;7.10;1.00;;;;;;5089320;28;20476;-81
2024/03/11 05:38:00;;;;;;;2.07;1.80;;;7.20;1.00;;;;;;5088237;28;20541;-79
2024/03/11 05:40:28;;;;;;;2.23;2.13;;;7.30;1.00;;;;;;5096087;28;20869;-86
2024/03/11 05:42:56;;;;;;;1.40;1.40;;;7.30;1.00;;;;;;5095968;28;20444;-82
2024/03/11 05:45:25;;;;;;;1.40;1.40;;;7.20;1.00;;;;;;5086561;28;20456;-79
2024/03/11 05:47:57;;;;;;;1.80;1.70;;;7.30;1.00;;;;;;5085177;28;20476;-79
2024/03/11 05:50:26;;;;;;;1.43;1.43;;;7.20;1.00;;;;;;5091829;28;20513;-79
2024/03/11 05:52:55;;;;;;;1.60;1.50;;;7.40;1.00;;;;;;5089654;28;20546;-78
2024/03/11 05:55:26;;;;;;;1.53;1.43;;;7.40;1.00;;;;;;5087037;28;20568;-82
2024/03/11 05:57:59;;;;;;;1.67;1.57;;;7.30;1.00;;;;;;5077482;28;20436;-78
2024/03/11 06:00:31;;;;;;;1.80;1.70;;;7.30;1.00;;;;;;5085701;28;20496;-77
2024/03/11 06:03:05;;;;;;;1.60;1.60;;;7.20;1.00;;;;;;5094405;28;20471;-77
2024/03/11 06:05:33;;;;;;;1.90;1.80;;;7.20;1.00;;;;;;5082747;28;20434;-81
2024/03/11 06:08:01;;;;;;;1.60;1.50;;;7.10;1.00;;;;;;5072251;28;20454;-79
2024/03/11 06:10:29;;;;;;;2.40;2.30;;;7.20;1.00;;;;;;5081933;28;20985;-78
2024/03/11 06:12:58;;;;;;;2.23;2.13;;;7.10;1.00;;;;;;5081355;28;20448;-78
2024/03/11 06:15:27;;;;;;;2.00;1.90;;;7.20;1.00;;;;;;5072823;28;20490;-79
2024/03/11 06:17:55;;;;;;;2.87;2.67;;;7.30;1.00;;;;;;5077128;28;20451;-79
2024/03/11 06:20:25;;;;;;;1.97;1.87;;;7.30;1.00;;;;;;5077394;28;20470;-79
2024/03/11 06:22:54;;;;;;;2.97;2.77;;;7.30;1.00;;;;;;5073182;28;20467;-80
2024/03/11 06:25:23;;;;;;;2.20;2.10;;;7.30;1.00;;;;;;5073466;28;20540;-81
2024/03/11 06:27:52;;;;;;;3.07;2.13;;;7.30;1.00;;;;;;5075382;28;20434;-79
2024/03/11 06:30:20;;;;;;;2.97;2.20;;;7.40;1.00;;;;;;5076559;28;20493;-79
2024/03/11 06:32:50;;;;;;;2.20;2.00;;;7.50;1.00;;;;;;5071546;28;20958;-80
2024/03/11 06:35:19;;;;;;;1.97;1.87;;;7.40;1.00;;;;;;5072989;28;20469;-82
2024/03/11 06:37:49;;;;;;;2.10;1.93;;;7.40;1.00;;;;;;5076119;28;20454;-77
2024/03/11 06:40:21;;;;;;;2.07;1.97;;;7.40;1.00;;;;;;5080101;28;20474;-79
2024/03/11 06:42:51;;;;;;;2.10;2.00;;;7.60;1.00;;;;;;5068069;28;20458;-79
2024/03/11 06:45:21;;;;;;;1.83;1.73;;;7.70;1.00;;;;;;5066408;28;20438;-77
2024/03/11 06:47:49;;;;;;;2.03;1.93;;;7.90;1.00;;;;;;5081032;28;21002;-78
2024/03/11 06:50:18;;;;;;;2.00;1.90;;;7.70;1.00;;;;;;5072059;28;20470;-77
2024/03/11 06:52:46;;;;;;;1.97;1.87;;;7.80;1.00;;;;;;5080003;28;20446;-78
2024/03/11 06:55:18;;;;;;;2.00;1.90;;;7.90;1.00;;;;;;5070265;28;20477;-82
2024/03/11 06:57:46;;;;;;;2.00;1.90;;;7.80;1.00;;;;;;5075269;28;20537;-81
2024/03/11 07:00:21;;;;;;;1.90;1.80;;;7.90;1.00;;;;;;5073417;28;20489;-79
2024/03/11 07:02:50;;;;;;;1.80;1.70;;;8.00;1.00;;;;;;5066463;28;20199;-79
2024/03/11 07:05:26;;;;;;;1.90;1.80;;;8.10;1.00;;;;;;5071521;28;20950;-79
2024/03/11 07:07:55;;;;;;;1.60;1.57;;;8.10;99.90;;;;;;5070601;28;20461;-82
2024/03/11 07:10:25;;;;;;;1.90;1.80;;;8.10;1.00;;;;;;5070484;28;20531;-79
2024/03/11 07:12:54;;;;;;;1.80;1.70;;;8.20;1.00;;;;;;5091909;28;20537;-79
2024/03/11 07:15:23;;;;;;;1.80;1.70;;;8.20;1.00;;;;;;5072038;28;20497;-79
2024/03/11 07:17:52;;;;;;;1.87;1.77;;;8.20;99.90;;;;;;5075116;28;20463;-84
2024/03/11 07:20:23;;;;;;;1.90;1.80;;;8.30;99.90;;;;;;5070218;28;20483;-80
2024/03/11 07:22:52;;;;;;;2.27;2.17;;;8.30;99.90;;;;;;5075615;28;20442;-80
2024/03/11 07:25:21;;;;;;;2.10;2.00;;;8.20;99.90;;;;;;5072865;28;20465;-79
2024/03/11 07:27:52;;;;;;;1.63;1.53;;;8.20;99.90;;;;;;5073429;28;20483;-81
2024/03/11 07:30:23;;;;;;;1.53;1.43;;;8.30;99.90;;;;;;5076907;28;20523;-80
2024/03/11 07:33:05;;;;;;;1.90;1.80;;;8.30;99.90;;;;;;5074638;28;20462;-80
2024/03/11 07:35:33;;;;;;;2.50;2.30;;;8.40;99.90;;;;;;5068582;28;20527;-78
2024/03/11 07:38:04;;;;;;;1.90;1.80;;;8.60;99.90;;;;;;5070329;28;21133;-81
2024/03/11 07:40:34;;;;;;;2.10;2.00;;;8.90;99.90;;;;;;5082652;28;20450;-78
2024/03/11 07:43:06;;;;;;;1.83;1.73;;;9.00;99.90;;;;;;5061734;28;20450;-82
2024/03/11 07:45:35;;;;;;;2.37;1.70;;;9.00;99.90;;;;;;5073685;28;20443;-82
2024/03/11 07:48:03;;;;;;;1.90;1.80;;;9.10;99.90;;;;;;5068177;28;20511;-80
2024/03/11 07:50:32;;;;;;;1.70;1.60;;;9.10;99.90;;;;;;5067119;28;20471;-79
2024/03/11 07:53:00;;;;;;;1.80;1.70;;;9.30;99.90;;;;;;5064341;28;20435;-78
2024/03/11 07:55:29;;;;;;;2.00;1.63;;;9.30;99.90;;;;;;5064583;28;21064;-83
2024/03/11 07:57:57;;;;;;;1.70;1.60;;;9.50;99.90;;;;;;5068348;28;20469;-81
2024/03/11 08:00:36;;;;;;;1.63;1.63;;;9.70;99.90;;;;;;5069556;28;20463;-79
2024/03/11 08:03:05;;;;;;;1.80;1.70;;;10.00;99.90;;;;;;5068845;28;20451;-78
2024/03/11 08:05:34;;;;;;;1.73;1.63;;;10.20;99.90;;;;;;5071048;28;20505;-79
2024/03/11 08:08:03;;;;;;;1.90;1.80;;;10.60;99.90;;;;;;5074948;28;20466;-79
2024/03/11 08:10:31;;;;;;;1.50;1.50;;;11.00;99.90;;;;;;5073903;28;20452;-82
2024/03/11 08:13:00;;;;;;;1.97;1.60;;;11.40;99.90;;;;;;5068184;28;20457;-79
2024/03/11 08:15:30;;;;;;;1.90;1.80;;;11.70;99.90;;;;;;5071554;28;20837;-78
2024/03/11 08:17:58;;;;;;;1.63;1.60;;;11.90;99.90;;;;;;5071144;28;20468;-80
2024/03/11 08:20:26;;;;;;;1.70;1.60;;;12.10;99.90;;;;;;5070293;28;20461;-80
2024/03/11 08:22:57;;;;;;;1.60;1.53;;;12.50;99.90;;;;;;5066095;28;20451;-81
2024/03/11 08:25:27;;;;;;;1.53;1.43;;;12.60;99.90;;;;;;5070996;28;21021;-80
2024/03/11 08:27:56;;;;;;;1.60;1.50;;;12.80;99.90;;;;;;5078182;28;20447;-81
2024/03/11 08:30:27;;;;;;;1.70;1.60;;;13.00;99.90;;;;;;5072094;28;20476;-78
2024/03/11 08:32:57;;;;;;;2.60;1.50;;;13.20;99.90;;;;;;5059719;28;20456;-81
2024/03/11 08:35:26;;;;;;;1.70;1.60;;;13.50;99.90;;;;;;5073656;28;21032;-80
2024/03/11 08:37:54;;;;;;;1.53;1.43;;;13.60;99.90;;;;;;5071367;28;20473;-85
2024/03/11 08:40:23;;;;;;;2.00;1.53;;;13.80;99.90;;;;;;5071002;28;21023;-78
2024/03/11 08:42:52;;;;;;;1.40;1.40;;;13.70;99.90;;;;;;5075751;28;20454;-81
2024/03/11 08:45:22;;;;;;;1.70;1.60;;;14.10;99.90;;;;;;5072957;28;20450;-79
2024/03/11 08:47:54;;;;;;;1.50;1.50;;;14.40;99.90;;;;;;5070827;28;20811;-77
2024/03/11 08:50:24;;;;;;;1.50;1.50;;;14.50;99.90;;;;;;5070470;28;20455;-78
2024/03/11 08:52:52;;;;;;;1.83;1.73;;;14.60;99.90;;;;;;5072462;28;20951;-75
2024/03/11 08:55:20;;;;;;;1.40;1.40;;;14.70;99.90;;;;;;5066764;28;20456;-76
2024/03/11 08:57:49;;;;;;;1.40;1.40;;;14.70;99.90;;;;;;5068963;28;21016;-80
2024/03/11 09:00:18;;;;;;;1.50;1.50;;;14.90;99.90;;;;;;5066731;28;20476;-77
2024/03/11 09:02:47;;;;;;;1.43;1.43;;;15.10;99.90;;;;;;5070694;28;20535;-80
2024/03/11 09:05:18;;;;;;;1.60;1.50;;;15.30;99.90;;;;;;5068682;28;20566;-79
2024/03/11 09:07:50;;;;;;;1.40;1.40;;;15.10;99.90;;;;;;5073267;28;20455;-78
2024/03/11 09:10:20;;;;;;;1.70;1.60;;;15.30;99.90;;;;;;5068658;28;20502;-79
2024/03/11 09:12:49;;;;;;;1.50;1.50;;;15.40;99.90;;;;;;5089243;28;20448;-78
2024/03/11 09:15:23;;;;;;;1.70;1.60;;;15.30;99.90;;;;;;5071864;28;20551;-78
2024/03/11 09:17:52;;;;;;;1.67;1.67;;;15.70;99.90;;;;;;5076838;28;20486;-77
2024/03/11 09:20:22;;;;;;;1.50;1.50;;;16.00;99.90;;;;;;5072030;28;20471;-77
2024/03/11 09:22:53;;;;;;;1.83;1.60;;;15.90;99.90;;;;;;5070812;28;20483;-82
2024/03/11 09:25:23;;;;;;;1.30;1.20;;;16.40;99.90;;;;;;5072635;28;20999;-77
2024/03/11 09:27:54;;;;;;;1.47;1.47;;;16.60;99.90;;;;;;5075158;28;20454;-79
2024/03/11 09:30:27;;;;;;;1.60;1.60;;;16.80;99.90;;;;;;5071399;28;20493;-81
2024/03/11 09:32:55;;;;;;;1.40;1.40;;;16.90;99.90;;;;;;5071083;28;20447;-78
2024/03/11 09:35:24;;;;;;;1.30;1.30;;;16.60;99.90;;;;;;5071623;28;20464;-80
2024/03/11 09:37:54;;;;;;;1.30;1.30;;;16.70;99.90;;;;;;5071215;28;20553;-79
2024/03/11 09:40:24;;;;;;;3.93;1.50;;;17.30;99.90;;;;;;5068837;28;20481;-79
2024/03/11 09:42:54;;;;;;;1.30;1.30;;;17.70;99.90;;;;;;5076725;28;20442;-82
2024/03/11 09:45:27;;;;;;;1.73;1.37;;;17.90;99.90;;;;;;5076572;28;20497;-78
2024/03/11 09:47:58;;;;;;;1.40;1.30;;;18.20;99.90;;;;;;5074071;28;20457;-78
2024/03/11 09:50:30;;;;;;;1.40;1.30;;;18.20;99.90;;;;;;5074123;28;20470;-80
2024/03/11 09:53:03;;;;;;;1.20;1.20;;;17.80;99.90;;;;;;5070931;28;20471;-79
2024/03/11 09:55:33;;;;;;;1.33;1.33;;;17.80;99.90;;;;;;5074886;28;20459;-79
2024/03/11 09:58:05;;;;;;;1.30;1.30;;;18.10;99.90;;;;;;5080034;28;20540;-78
2024/03/11 10:00:35;;;;;;;1.43;1.30;;;18.10;99.90;;;;;;5077969;28;20493;-80
2024/03/11 10:03:13;;;;;;;1.57;1.30;;;18.20;99.90;;;;;;5079859;28;20464;-79
2024/03/11 10:05:44;;;;;;;1.53;1.43;;;18.00;99.90;;;;;;5077518;28;20546;-77
2024/03/11 10:08:18;;;;;;;1.20;1.20;;;18.00;99.90;;;;;;5069655;28;20520;-81
2024/03/11 10:11:10;;;;;;;2.83;1.50;;;18.30;99.90;;;;;;5073907;28;20458;-82
2024/03/11 10:13:39;;;;;;;1.40;1.30;;;18.20;99.90;;;;;;5076939;28;20452;-78
2024/03/11 10:16:18;;;;;;;1.65;1.30;;;18.30;99.90;;;;;;5073603;28;20443;-81
2024/03/11 10:19:02;;;;;;;1.50;1.40;;;18.50;99.90;;;;;;5081727;28;20301;-83
2024/03/11 10:21:33;;;;;;;1.87;1.63;;;18.50;99.90;;;;;;5084254;28;20435;-80
2024/03/11 10:24:08;;;;;;;1.60;1.50;;;18.90;99.90;;;;;;5079943;28;20552;-81
2024/03/11 10:26:41;;;;;;;1.63;1.53;;;19.10;99.90;;;;;;5080333;28;20476;-81
2024/03/11 10:29:11;;;;;;;1.30;1.30;;;19.40;99.90;;;;;;5080498;28;20501;-80
2024/03/11 10:31:42;;;;;;;1.43;1.37;;;19.70;99.90;;;;;;5077270;28;20464;-82
2024/03/11 10:34:12;;;;;;;1.50;1.40;;;19.40;99.90;;;;;;5077634;28;20449;-80
2024/03/11 10:36:44;;;;;;;1.67;1.50;;;18.90;99.90;;;;;;5081376;28;20447;-80
2024/03/11 10:39:30;;;;;;;1.60;1.50;;;18.30;99.90;;;;;;5080400;28;20499;-83
2024/03/11 10:42:01;;;;;;;1.60;1.50;;;18.20;99.90;;;;;;5079844;28;20445;-80
2024/03/11 10:44:30;;;;;;;1.60;1.50;;;18.10;99.90;;;;;;5073713;28;20456;-79
2024/03/11 10:47:14;;;;;;;1.60;1.53;;;18.00;99.90;;;;;;5080574;28;20438;-79
2024/03/11 10:49:47;;;;;;;1.50;1.40;;;17.90;99.90;;;;;;5078900;28;20462;-79
2024/03/11 10:52:20;;;;;;;1.50;1.40;;;18.00;99.90;;;;;;5078094;28;20529;-80
2024/03/11 10:54:54;;;;;;;1.30;1.30;;;18.00;99.90;;;;;;5076709;28;20486;-82
2024/03/11 10:57:43;;;;;;;1.33;1.30;;;17.60;99.90;;;;;;5081319;28;20604;-83
2024/03/11 11:00:21;;;;;;;1.27;1.20;;;17.20;99.90;;;;;;5079490;28;20524;-81
2024/03/11 11:02:57;;;;;;;1.60;1.40;;;16.80;99.90;;;;;;5076600;28;20456;-79
2024/03/11 11:05:32;;;;;;;1.47;1.30;;;16.80;99.90;;;;;;5080579;28;20957;-79
2024/03/11 11:08:03;;;;;;;2.00;1.20;;;16.50;99.90;;;;;;5077787;28;20464;-83
2024/03/11 11:10:38;;;;;;;1.10;1.10;;;16.30;99.90;;;;;;5073131;28;20467;-82
2024/03/11 11:13:08;;;;;;;1.20;1.20;;;16.30;99.90;;;;;;5077952;28;20453;-80
2024/03/11 11:15:36;;;;;;;1.07;1.00;;;16.40;99.90;;;;;;5075963;28;20460;-77
2024/03/11 11:18:09;;;;;;;1.13;1.00;;;16.20;99.40;;;;;;5077050;28;20463;-77
2024/03/11 11:20:38;;;;;;;1.30;1.30;;;16.10;98.90;;;;;;5082020;28;20463;-80
2024/03/11 11:23:10;;;;;;;1.13;1.13;;;16.00;99.40;;;;;;5078337;28;20458;-82
2024/03/11 11:25:42;;;;;;;1.20;1.20;;;15.90;99.90;;;;;;5079170;28;20430;-80
2024/03/11 11:28:13;;;;;;;1.37;1.27;;;16.00;99.90;;;;;;5080643;28;20463;-79
2024/03/11 11:30:43;;;;;;;1.17;1.17;;;16.10;99.90;;;;;;5080932;28;20514;-78
2024/03/11 11:33:49;;;;;;;1.30;1.20;;;16.00;99.00;;;;;;5073886;28;20453;-79
2024/03/11 11:36:51;;;;;;;1.33;1.23;;;16.00;99.90;;;;;;5080611;28;20455;-79
2024/03/11 11:39:32;;;;;;;1.30;1.20;;;16.00;99.10;;;;;;5075206;28;20503;-79
2024/03/11 11:42:03;;;;;;;1.43;1.20;;;15.90;99.30;;;;;;5072891;28;20538;-80
2024/03/11 11:44:49;;;;;;;1.37;1.27;;;15.90;99.90;;;;;;5078782;28;20454;-78
2024/03/11 11:47:24;;;;;;;2.00;1.30;;;15.90;99.50;;;;;;5074892;28;20452;-78
2024/03/11 11:49:52;;;;;;;1.37;1.33;;;15.90;99.40;;;;;;5078095;28;20736;-79
2024/03/11 11:52:21;;;;;;;2.10;1.20;;;15.80;98.70;;;;;;5075447;28;20459;-78
2024/03/11 11:54:50;;;;;;;1.40;1.30;;;15.80;98.70;;;;;;5075233;28;20504;-78
2024/03/11 11:57:21;;;;;;;1.23;1.10;;;15.80;98.70;;;;;;5077024;28;20454;-78
2024/03/11 11:59:57;;;;;;;1.10;1.10;;;15.70;98.70;;;;;;5076872;28;20464;-79
2024/03/11 12:02:29;;;;;;;1.10;1.10;;;15.50;93.80;;;;;;5075545;28;20459;-79
2024/03/11 12:05:00;;;;;;;1.37;1.30;;;15.30;93.50;;;;;;5076752;28;20507;-78
2024/03/11 12:07:29;;;;;;;1.20;1.20;;;15.30;93.60;;;;;;5069887;28;20452;-78
2024/03/11 12:09:59;;;;;;;1.33;1.10;;;15.30;93.50;;;;;;5069040;28;20487;-79
2024/03/11 12:12:32;;;;;;;1.30;1.20;;;15.30;92.80;;;;;;5074807;28;20474;-79
2024/03/11 12:15:01;;;;;;;1.10;1.10;;;15.20;92.70;;;;;;5074168;28;20488;-82
2024/03/11 12:17:32;;;;;;;1.10;1.10;;;15.10;93.40;;;;;;5070333;28;20469;-78
2024/03/11 12:20:15;;;;;;;1.30;1.20;;;15.10;94.70;;;;;;5073216;28;20584;-79
2024/03/11 12:22:44;;;;;;;1.00;1.00;;;15.20;95.80;;;;;;5075091;28;20449;-79
2024/03/11 12:25:13;;;;;;;3.90;1.43;;;15.30;99.90;;;;;;5071821;28;20452;-82
2024/03/11 12:27:45;;;;;;;1.70;1.10;;;15.40;98.90;;;;;;5072749;28;20776;-81
2024/03/11 12:30:18;;;;;;;1.63;1.20;;;15.60;99.90;;;;;;5078598;28;20887;-81
2024/03/11 12:32:57;;;;;;;1.03;1.03;;;15.80;99.90;;;;;;5077263;28;20440;-80
2024/03/11 12:35:27;;;;;;;1.10;1.10;;;15.90;99.90;;;;;;5073707;28;20449;-80
2024/03/11 12:37:58;;;;;;;1.10;1.10;;;16.00;99.90;;;;;;5073391;28;20480;-80
2024/03/11 12:40:29;;;;;;;1.10;1.10;;;15.80;98.80;;;;;;5072837;28;20834;-80
2024/03/11 12:43:13;;;;;;;3.53;1.20;;;15.60;97.80;;;;;;5074391;28;20456;-79
2024/03/11 12:45:42;;;;;;;1.20;1.20;;;15.50;95.50;;;;;;5077329;28;20465;-81
2024/03/11 12:48:13;;;;;;;1.40;1.30;;;15.40;99.90;;;;;;5073612;28;21141;-80
2024/03/11 12:50:42;;;;;;;2.10;1.43;;;15.40;94.60;;;;;;5079136;28;20453;-79
2024/03/11 12:53:12;;;;;;;1.20;1.20;;;15.40;96.30;;;;;;5079759;28;20452;-79
2024/03/11 12:55:42;;;;;;;1.10;1.10;;;15.50;97.50;;;;;;5073138;28;20467;-81
2024/03/11 12:58:16;;;;;;;1.27;1.17;;;15.70;98.60;;;;;;5076235;28;20493;-79
2024/03/11 13:00:46;;;;;;;1.33;1.20;;;15.80;99.90;;;;;;5074500;28;20438;-81
2024/03/11 13:03:19;;;;;;;2.63;1.20;;;15.80;98.20;;;;;;5074232;28;20797;-81
2024/03/11 13:05:59;;;;;;;1.17;1.07;;;15.90;98.20;;;;;;5075268;28;20464;-78
2024/03/11 13:08:29;;;;;;;1.10;1.10;;;15.90;96.60;;;;;;5077034;28;20447;-79
2024/03/11 13:11:04;;;;;;;1.30;1.20;;;15.80;96.50;;;;;;5073266;28;20465;-79
2024/03/11 13:13:35;;;;;;;1.27;1.20;;;15.80;94.60;;;;;;5071823;28;20448;-80
2024/03/11 13:16:04;;;;;;;1.20;1.20;;;15.70;94.60;;;;;;5076510;28;20480;-79